Etusivu
METAR-TAF:

METAR-TAF

Lentoasemat :

Flag Island, Minnesota, Yhdysvallat

Leveyspiiri: 49-19N, Pituuspiiri: 094-54W, korkeus merenpinnasta: 329 m

Tämänhetkinen sää

Tämä raportti tehtiin 9 minuuttia sitten, kello 03.56 UTC
Tuuli 6 kn pohjoisesta
Lämpötila 7°C
Kosteus 66%
Ilmanpaine 1021 hPa
Näkyvyys: 16.1 km
Hajonneita pilviä 9500 ft:n korkeudessa

METAR: KFGN 230356Z AUTO 01006KT 10SM BKN095 07/01 A3014 RMK AO2

Aika: 23:05 (04:05 UTC)


TAF: puuttuu

Säähavainnot ja -ennusteet yli 4000 lentoasemalta (METAR- ja TAF-raportit).

Käytössä olevat sääasemat on merkitty karttaan keltaisilla ja punaisilla pisteillä.

Aseta hiiri pisteen päälle nähdäksesi sääaseman nimen.

Klikkaa sitten nähdäksesi säähavainnot ja -ennusteet.

Kartan vaihtaminen: klikkaa mustalla rastilla varustettuja vihreitä pisteitä, niin voit zoomata sisään; viivalla varustettua vihreää pistettä, niin voit zoomata ulos tai vihreitä nuolia, niin pääset viereisille kartoille.


METAR-TAF: